createdAt,value
2022-08-30T00:01:30.649Z,97919.00
2022-08-30T00:03:59.174Z,97923.00
2022-08-30T00:06:28.480Z,97920.00
2022-08-30T00:08:57.224Z,97921.00
2022-08-30T00:11:27.796Z,97917.00
2022-08-30T00:13:56.705Z,97912.00
2022-08-30T00:16:26.707Z,97914.00
2022-08-30T00:18:54.757Z,97909.00
2022-08-30T00:21:22.536Z,97913.00
2022-08-30T00:23:49.880Z,97913.00
2022-08-30T00:26:17.130Z,97917.00
2022-08-30T00:28:44.505Z,97917.00
2022-08-30T00:31:14.934Z,97914.00
2022-08-30T00:33:42.924Z,97922.00
2022-08-30T00:36:10.441Z,97917.00
2022-08-30T00:38:37.690Z,97918.00
2022-08-30T00:41:05.053Z,97914.00
2022-08-30T00:43:36.875Z,97915.00
2022-08-30T00:46:08.532Z,97904.00
2022-08-30T00:48:40.748Z,97908.00
2022-08-30T00:51:11.778Z,97911.00
2022-08-30T00:53:44.639Z,97922.00
2022-08-30T00:56:12.158Z,97904.00
2022-08-30T00:58:44.657Z,97902.00
2022-08-30T01:01:12.421Z,97905.00
2022-08-30T01:03:41.256Z,97907.00
2022-08-30T01:06:08.501Z,97897.00
2022-08-30T01:08:36.269Z,97907.00
2022-08-30T01:11:05.025Z,97908.00
2022-08-30T01:13:35.351Z,97907.00
2022-08-30T01:16:03.473Z,97898.00
2022-08-30T01:18:32.178Z,97900.00
2022-08-30T01:21:11.038Z,97902.00
2022-08-30T01:23:43.489Z,97900.00
2022-08-30T01:26:13.476Z,97907.00
2022-08-30T01:28:46.018Z,97907.00
2022-08-30T01:31:13.377Z,97905.00
2022-08-30T01:33:40.718Z,97900.00
2022-08-30T01:36:12.692Z,97897.00
2022-08-30T01:38:53.116Z,97902.00
2022-08-30T01:41:26.576Z,97899.00
2022-08-30T01:43:59.029Z,97913.00
2022-08-30T01:46:36.788Z,97900.00
2022-08-30T01:49:10.196Z,97908.00
2022-08-30T01:51:38.693Z,97905.00
2022-08-30T01:54:06.911Z,97910.00
2022-08-30T01:56:34.153Z,97904.00
2022-08-30T01:59:03.052Z,97902.00
2022-08-30T02:01:37.255Z,97897.00
2022-08-30T02:04:04.695Z,97901.00
2022-08-30T02:06:32.191Z,97903.00
2022-08-30T02:09:00.437Z,97902.00
2022-08-30T02:11:27.755Z,97905.00
2022-08-30T02:13:55.048Z,97903.00
2022-08-30T02:16:24.390Z,97909.00
2022-08-30T02:18:53.589Z,97903.00
2022-08-30T02:21:21.162Z,97904.00
2022-08-30T02:23:48.349Z,97900.00
2022-08-30T02:26:16.154Z,97899.00
2022-08-30T02:28:49.875Z,97898.00
2022-08-30T02:31:20.424Z,97895.00
2022-08-30T02:33:50.575Z,97894.00
2022-08-30T02:36:18.895Z,97895.00
2022-08-30T02:38:46.648Z,97894.00
2022-08-30T02:41:14.589Z,97891.00
2022-08-30T02:43:42.015Z,97895.00
2022-08-30T02:46:09.565Z,97900.00
2022-08-30T02:48:36.773Z,97901.00
2022-08-30T02:51:13.199Z,97895.00
2022-08-30T02:53:42.593Z,97905.00
2022-08-30T02:56:11.526Z,97909.00
2022-08-30T02:58:38.905Z,97893.00
2022-08-30T03:01:06.581Z,97903.00
2022-08-30T03:03:34.057Z,97899.00
2022-08-30T03:06:03.434Z,97892.00
2022-08-30T03:08:32.517Z,97890.00
2022-08-30T03:11:00.811Z,97905.00
2022-08-30T03:13:28.055Z,97900.00
2022-08-30T03:15:55.214Z,97895.00
2022-08-30T03:18:24.671Z,97900.00
2022-08-30T03:20:54.514Z,97902.00
2022-08-30T03:23:24.273Z,97906.00
2022-08-30T03:25:53.554Z,97902.00
2022-08-30T03:28:20.934Z,97906.00
2022-08-30T03:30:48.360Z,97909.00
2022-08-30T03:33:15.819Z,97909.00
2022-08-30T03:35:45.794Z,97911.00
2022-08-30T03:38:13.030Z,97916.00
2022-08-30T03:40:40.171Z,97911.00
2022-08-30T03:43:07.708Z,97914.00
2022-08-30T03:45:35.809Z,97917.00
2022-08-30T03:48:03.735Z,97927.00
2022-08-30T03:50:31.635Z,97931.00
2022-08-30T03:53:01.989Z,97930.00
2022-08-30T03:55:30.661Z,97928.00
2022-08-30T03:57:58.130Z,97922.00
2022-08-30T04:00:25.714Z,97929.00
2022-08-30T04:02:53.018Z,97940.00
2022-08-30T04:05:20.999Z,97937.00
2022-08-30T04:07:48.244Z,97940.00
2022-08-30T04:10:16.131Z,97940.00
2022-08-30T04:12:48.915Z,97939.00
2022-08-30T04:15:18.849Z,97940.00
2022-08-30T04:17:46.450Z,97946.00
2022-08-30T04:20:13.984Z,97945.00
2022-08-30T04:22:41.154Z,97948.00
2022-08-30T04:25:15.640Z,97951.00
2022-08-30T04:27:44.938Z,97948.00
2022-08-30T04:30:13.956Z,97943.00
2022-08-30T04:32:41.217Z,97954.00
2022-08-30T04:35:09.841Z,97950.00
2022-08-30T04:37:38.888Z,97953.00
2022-08-30T04:40:07.529Z,97954.00
2022-08-30T04:42:35.890Z,97948.00
2022-08-30T04:45:07.421Z,97948.00
2022-08-30T04:47:35.036Z,97949.00
2022-08-30T04:50:03.913Z,97953.00
2022-08-30T04:52:31.119Z,97952.00
2022-08-30T04:54:59.425Z,97959.00
2022-08-30T04:57:27.772Z,97965.00
2022-08-30T04:59:55.323Z,97965.00
2022-08-30T05:02:23.474Z,97964.00
2022-08-30T05:05:09.418Z,97968.00
2022-08-30T05:07:36.790Z,97977.00
2022-08-30T05:10:10.500Z,97977.00
2022-08-30T05:12:39.363Z,97986.00
2022-08-30T05:15:07.189Z,97982.00
2022-08-30T05:17:34.416Z,97975.00
2022-08-30T05:20:02.782Z,97976.00
2022-08-30T05:22:30.140Z,97979.00
2022-08-30T05:24:57.359Z,97984.00
2022-08-30T05:27:24.666Z,97986.00
2022-08-30T05:29:51.714Z,97985.00
2022-08-30T05:32:19.159Z,97985.00
2022-08-30T05:34:46.260Z,97982.00
2022-08-30T05:37:13.548Z,97985.00
2022-08-30T05:39:45.976Z,97993.00
2022-08-30T05:42:19.206Z,97989.00
2022-08-30T05:44:47.783Z,97996.00
2022-08-30T05:47:15.022Z,97998.00
2022-08-30T05:49:42.150Z,98000.00
2022-08-30T05:52:09.465Z,98006.00
2022-08-30T05:54:36.568Z,98001.00
2022-08-30T05:57:03.750Z,97997.00
2022-08-30T05:59:31.329Z,98000.00
2022-08-30T06:01:59.154Z,98003.00
2022-08-30T06:04:27.073Z,98004.00
2022-08-30T06:06:54.258Z,98003.00
2022-08-30T06:09:21.554Z,98011.00
2022-08-30T06:11:48.730Z,98007.00
2022-08-30T06:14:16.175Z,98009.00
2022-08-30T06:16:45.981Z,98005.00
2022-08-30T06:19:15.200Z,98009.00
2022-08-30T06:21:43.284Z,98010.00
2022-08-30T06:24:12.232Z,98007.00
2022-08-30T06:26:43.992Z,98009.00
2022-08-30T06:29:15.833Z,98007.00
2022-08-30T06:31:43.110Z,97999.00
2022-08-30T06:34:10.581Z,98002.00
2022-08-30T06:36:38.707Z,98005.00
2022-08-30T06:39:07.066Z,98009.00
2022-08-30T06:41:37.693Z,98013.00
2022-08-30T06:44:06.399Z,98011.00
2022-08-30T06:46:37.683Z,98004.00
2022-08-30T06:49:09.370Z,98007.00
2022-08-30T06:51:39.898Z,98009.00
2022-08-30T06:54:10.751Z,98012.00
2022-08-30T06:56:55.180Z,98011.00
2022-08-30T06:59:25.983Z,98013.00
2022-08-30T07:01:55.172Z,98010.00
2022-08-30T07:04:24.671Z,98006.00
2022-08-30T07:06:52.193Z,98011.00
2022-08-30T07:09:19.756Z,98006.00
2022-08-30T07:11:51.095Z,97998.00
2022-08-30T07:14:19.037Z,98008.00
2022-08-30T07:16:51.301Z,98006.00
2022-08-30T07:19:20.931Z,97996.00
2022-08-30T07:21:49.486Z,98002.00
2022-08-30T07:24:18.610Z,98000.00
2022-08-30T07:26:52.080Z,98001.00
2022-08-30T07:29:21.463Z,98009.00
2022-08-30T07:31:48.868Z,98015.00
2022-08-30T07:34:15.930Z,98009.00
2022-08-30T07:36:43.262Z,98000.00
2022-08-30T07:39:10.337Z,98010.00
2022-08-30T07:41:39.007Z,98011.00
2022-08-30T07:44:08.681Z,98009.00
2022-08-30T07:46:38.006Z,98011.00
2022-08-30T07:49:11.346Z,98009.00
2022-08-30T07:51:40.135Z,98011.00
2022-08-30T07:54:07.390Z,98012.00
2022-08-30T07:56:35.325Z,98007.00
2022-08-30T07:59:02.456Z,98003.00
2022-08-30T08:01:29.676Z,98009.00
2022-08-30T08:03:57.027Z,97995.00
2022-08-30T08:06:25.041Z,98003.00
2022-08-30T08:08:53.625Z,98003.00
2022-08-30T08:11:26.821Z,98008.00
2022-08-30T08:13:56.827Z,98001.00
2022-08-30T08:16:27.492Z,97994.00
2022-08-30T08:18:55.180Z,97994.00
2022-08-30T08:21:24.204Z,98007.00
2022-08-30T08:23:51.773Z,98001.00
2022-08-30T08:26:20.269Z,98003.00
2022-08-30T08:28:47.723Z,98001.00
2022-08-30T08:31:25.527Z,97995.00
2022-08-30T08:33:58.711Z,97997.00
2022-08-30T08:36:27.041Z,98002.00
2022-08-30T08:38:54.257Z,97999.00
2022-08-30T08:41:58.218Z,97996.00
2022-08-30T08:44:55.794Z,97996.00
2022-08-30T08:47:50.748Z,97991.00
2022-08-30T08:50:21.327Z,97993.00
2022-08-30T08:53:45.257Z,97990.00
2022-08-30T08:56:15.677Z,97997.00
2022-08-30T08:58:47.368Z,97986.00
2022-08-30T09:01:17.154Z,97992.00
2022-08-30T09:03:46.619Z,97984.00
2022-08-30T09:06:58.011Z,97988.00
2022-08-30T09:09:40.317Z,97990.00
2022-08-30T09:12:10.617Z,97981.00
2022-08-30T09:14:46.061Z,97986.00
2022-08-30T09:17:19.672Z,97982.00
2022-08-30T09:20:00.655Z,97979.00
2022-08-30T09:22:42.644Z,97979.00
2022-08-30T09:25:13.629Z,97985.00
2022-08-30T09:27:45.683Z,97983.00
2022-08-30T09:30:27.260Z,97977.00
2022-08-30T09:33:01.346Z,97978.00
2022-08-30T09:35:37.101Z,97977.00
2022-08-30T09:38:21.147Z,97977.00
2022-08-30T09:40:58.954Z,97980.00
2022-08-30T09:43:30.157Z,97979.00
2022-08-30T09:46:03.487Z,97974.00
2022-08-30T09:48:45.218Z,97971.00
2022-08-30T09:51:15.467Z,97972.00
2022-08-30T09:57:35.937Z,97962.00
2022-08-30T10:00:18.278Z,97959.00
2022-08-30T10:02:58.248Z,97957.00
2022-08-30T10:05:57.745Z,97963.00
2022-08-30T10:08:35.482Z,97948.00
2022-08-30T10:11:09.595Z,97951.00
2022-08-30T10:14:34.617Z,97949.00
2022-08-30T10:17:29.338Z,97947.00
2022-08-30T10:20:29.990Z,97951.00
2022-08-30T10:23:22.692Z,97945.00
2022-08-30T10:25:59.980Z,97946.00
2022-08-30T10:28:44.585Z,97941.00
2022-08-30T10:31:35.608Z,97944.00
2022-08-30T10:34:17.149Z,97936.00
2022-08-30T10:36:57.574Z,97941.00
2022-08-30T10:39:32.030Z,97933.00
2022-08-30T10:42:16.581Z,97935.00
2022-08-30T10:44:53.558Z,97924.00
2022-08-30T10:47:45.370Z,97926.00
2022-08-30T10:50:41.023Z,97910.00
2022-08-30T10:53:39.398Z,97919.00
2022-08-30T10:56:15.397Z,97921.00
2022-08-30T10:58:44.184Z,97921.00
2022-08-30T11:01:51.970Z,97918.00
2022-08-30T11:04:50.649Z,97925.00
2022-08-30T11:07:39.882Z,97919.00
2022-08-30T11:10:33.183Z,97917.00
2022-08-30T11:13:16.332Z,97914.00
2022-08-30T11:16:02.211Z,97917.00
2022-08-30T11:18:34.014Z,97911.00
2022-08-30T11:21:58.014Z,97906.00
2022-08-30T11:24:26.003Z,97904.00
2022-08-30T11:26:59.412Z,97897.00
2022-08-30T11:29:44.313Z,97897.00
2022-08-30T11:32:17.295Z,97895.00
2022-08-30T11:34:47.246Z,97894.00
2022-08-30T11:37:37.370Z,97896.00
2022-08-30T11:40:13.284Z,97896.00
2022-08-30T11:42:46.214Z,97900.00
2022-08-30T11:45:25.565Z,97898.00
2022-08-30T11:48:00.925Z,97900.00
2022-08-30T11:51:33.767Z,97891.00
2022-08-30T11:54:16.791Z,97901.00
2022-08-30T11:56:58.924Z,97894.00
2022-08-30T11:59:35.781Z,97886.00
2022-08-30T12:02:03.111Z,97887.00
2022-08-30T12:04:47.687Z,97890.00
2022-08-30T12:07:57.920Z,97885.00
2022-08-30T12:10:45.502Z,97884.00
2022-08-30T12:13:44.979Z,97889.00
2022-08-30T12:16:27.016Z,97872.00
2022-08-30T12:19:10.825Z,97871.00
2022-08-30T12:21:41.165Z,97868.00
2022-08-30T12:24:43.763Z,97866.00
2022-08-30T12:27:33.118Z,97864.00
2022-08-30T12:30:08.392Z,97861.00
2022-08-30T12:32:47.531Z,97861.00
2022-08-30T12:35:28.037Z,97858.00
2022-08-30T12:38:06.669Z,97863.00
2022-08-30T12:40:37.208Z,97852.00
2022-08-30T12:43:20.338Z,97855.00
2022-08-30T12:45:51.411Z,97859.00
2022-08-30T12:48:20.213Z,97851.00
2022-08-30T12:50:59.245Z,97844.00
2022-08-30T12:53:45.842Z,97844.00
2022-08-30T12:56:35.055Z,97839.00
2022-08-30T12:59:05.655Z,97832.00
2022-08-30T13:01:37.302Z,97837.00
2022-08-30T13:04:22.922Z,97825.00
2022-08-30T13:06:53.917Z,97823.00
2022-08-30T13:09:42.624Z,97821.00
2022-08-30T13:12:31.012Z,97821.00
2022-08-30T13:15:27.215Z,97815.00
2022-08-30T13:18:26.784Z,97823.00
2022-08-30T13:21:34.508Z,97821.00
2022-08-30T13:24:07.291Z,97818.00
2022-08-30T13:26:38.222Z,97822.00
2022-08-30T13:29:18.478Z,97818.00
2022-08-30T13:31:46.014Z,97818.00
2022-08-30T13:34:13.519Z,97811.00
2022-08-30T13:36:51.719Z,97816.00
2022-08-30T13:39:21.636Z,97815.00
2022-08-30T13:41:51.503Z,97820.00
2022-08-30T13:44:19.657Z,97820.00
2022-08-30T13:46:55.315Z,97807.00
2022-08-30T13:49:43.821Z,97803.00
2022-08-30T13:52:22.209Z,97810.00
2022-08-30T13:54:52.614Z,97808.00
2022-08-30T14:00:19.906Z,97805.00
2022-08-30T14:02:54.683Z,97807.00
2022-08-30T14:06:09.958Z,97809.00
2022-08-30T14:08:48.759Z,97797.00
2022-08-30T14:11:22.335Z,97801.00
2022-08-30T14:16:44.961Z,97798.00
2022-08-30T14:19:15.057Z,97795.00
2022-08-30T14:21:43.162Z,97792.00
2022-08-30T14:24:14.524Z,97785.00
2022-08-30T14:26:51.429Z,97787.00
2022-08-30T14:29:29.818Z,97789.00
2022-08-30T14:31:59.238Z,97779.00
2022-08-30T14:34:27.369Z,97778.00
2022-08-30T14:36:56.373Z,97770.00
2022-08-30T14:39:26.649Z,97769.00
2022-08-30T14:41:55.636Z,97770.00
2022-08-30T14:44:24.624Z,97771.00
2022-08-30T14:46:52.232Z,97765.00
2022-08-30T14:49:20.839Z,97760.00
2022-08-30T14:51:50.629Z,97762.00
2022-08-30T14:54:22.898Z,97757.00
2022-08-30T14:56:52.785Z,97755.00
2022-08-30T14:59:20.116Z,97749.00
2022-08-30T15:01:47.249Z,97739.00
2022-08-30T15:04:16.722Z,97736.00
2022-08-30T15:06:48.232Z,97743.00
2022-08-30T15:09:23.198Z,97730.00
2022-08-30T15:11:54.034Z,97736.00
2022-08-30T15:14:24.591Z,97728.00
2022-08-30T15:16:56.293Z,97728.00
2022-08-30T15:19:24.583Z,97724.00
2022-08-30T15:21:52.654Z,97720.00
2022-08-30T15:24:24.887Z,97717.00
2022-08-30T15:26:59.560Z,97722.00
2022-08-30T15:29:27.900Z,97726.00
2022-08-30T15:31:58.363Z,97725.00
2022-08-30T15:34:26.266Z,97715.00
2022-08-30T15:36:56.025Z,97716.00
2022-08-30T15:39:24.451Z,97714.00
2022-08-30T15:41:57.075Z,97712.00
2022-08-30T15:44:27.159Z,97715.00
2022-08-30T15:46:54.245Z,97710.00
2022-08-30T15:49:24.258Z,97710.00
2022-08-30T15:51:54.037Z,97699.00
2022-08-30T15:54:23.675Z,97702.00
2022-08-30T15:56:59.276Z,97694.00
2022-08-30T15:59:30.176Z,97699.00
2022-08-30T16:01:58.263Z,97700.00
2022-08-30T16:04:26.771Z,97695.00
2022-08-30T16:06:54.266Z,97700.00
2022-08-30T16:09:22.000Z,97693.00
2022-08-30T16:11:49.940Z,97692.00
2022-08-30T16:14:17.591Z,97689.00
2022-08-30T16:16:46.571Z,97687.00
2022-08-30T16:19:14.555Z,97683.00
2022-08-30T16:21:43.475Z,97684.00
2022-08-30T16:24:13.464Z,97681.00
2022-08-30T16:26:43.416Z,97677.00
2022-08-30T16:29:13.270Z,97671.00
2022-08-30T16:31:44.393Z,97673.00
2022-08-30T16:34:13.738Z,97674.00
2022-08-30T16:36:42.851Z,97670.00
2022-08-30T16:39:12.842Z,97663.00
2022-08-30T16:41:41.558Z,97666.00
2022-08-30T16:44:09.333Z,97665.00
2022-08-30T16:46:41.368Z,97664.00
2022-08-30T16:49:10.473Z,97661.00
2022-08-30T16:51:38.295Z,97671.00
2022-08-30T16:54:07.658Z,97668.00
2022-08-30T16:56:37.241Z,97670.00
2022-08-30T16:59:11.183Z,97671.00
2022-08-30T17:01:42.178Z,97667.00
2022-08-30T17:04:13.815Z,97674.00
2022-08-30T17:06:46.899Z,97676.00
2022-08-30T17:09:15.098Z,97668.00
2022-08-30T17:11:42.979Z,97670.00
2022-08-30T17:14:10.540Z,97673.00
2022-08-30T17:16:38.604Z,97678.00
2022-08-30T17:19:08.869Z,97678.00
2022-08-30T17:21:36.614Z,97673.00
2022-08-30T17:24:06.573Z,97681.00
2022-08-30T17:26:36.650Z,97681.00
2022-08-30T17:29:06.491Z,97682.00
2022-08-30T17:31:35.982Z,97690.00
2022-08-30T17:34:05.906Z,97686.00
2022-08-30T17:36:36.532Z,97689.00
2022-08-30T17:39:10.368Z,97688.00
2022-08-30T17:41:45.441Z,97686.00
2022-08-30T17:44:25.471Z,97684.00
2022-08-30T17:46:53.420Z,97690.00
2022-08-30T17:49:21.306Z,97692.00
2022-08-30T17:51:55.653Z,97690.00
2022-08-30T17:54:25.718Z,97691.00
2022-08-30T17:56:54.169Z,97696.00
2022-08-30T17:59:24.843Z,97701.00
2022-08-30T18:01:55.162Z,97699.00
2022-08-30T18:04:24.943Z,97703.00
2022-08-30T18:06:52.855Z,97705.00
2022-08-30T18:09:20.775Z,97714.00
2022-08-30T18:11:48.534Z,97708.00
2022-08-30T18:14:16.174Z,97717.00
2022-08-30T18:16:53.362Z,97714.00
2022-08-30T18:19:24.140Z,97714.00
2022-08-30T18:21:52.433Z,97725.00
2022-08-30T18:24:20.571Z,97727.00
2022-08-30T18:26:47.804Z,97726.00
2022-08-30T18:29:15.268Z,97740.00
2022-08-30T18:31:53.517Z,97739.00
2022-08-30T18:34:20.755Z,97737.00
2022-08-30T18:36:48.996Z,97739.00
2022-08-30T18:39:16.824Z,97749.00
2022-08-30T18:41:44.249Z,97757.00
2022-08-30T18:47:03.694Z,97753.00
2022-08-30T18:49:33.042Z,97769.00
2022-08-30T18:52:02.400Z,97755.00
2022-08-30T18:54:30.432Z,97760.00
2022-08-30T18:56:57.782Z,97753.00
2022-08-30T18:59:31.462Z,97766.00
2022-08-30T19:02:05.648Z,97767.00
2022-08-30T19:04:35.592Z,97759.00
2022-08-30T19:07:06.258Z,97756.00
2022-08-30T19:09:34.296Z,97762.00
2022-08-30T19:12:01.435Z,97758.00
2022-08-30T19:14:28.893Z,97751.00
2022-08-30T19:16:56.832Z,97750.00
2022-08-30T19:19:24.253Z,97750.00
2022-08-30T19:21:51.934Z,97756.00
2022-08-30T19:24:20.532Z,97755.00
2022-08-30T19:26:48.738Z,97755.00
2022-08-30T19:29:16.456Z,97752.00
2022-08-30T19:31:44.030Z,97751.00
2022-08-30T19:34:12.172Z,97745.00
2022-08-30T19:36:39.390Z,97744.00
2022-08-30T19:39:07.230Z,97740.00
2022-08-30T19:41:34.598Z,97734.00
2022-08-30T19:44:03.448Z,97745.00
2022-08-30T19:46:32.474Z,97746.00
2022-08-30T19:49:01.263Z,97748.00
2022-08-30T19:51:28.592Z,97748.00
2022-08-30T19:53:58.814Z,97737.00
2022-08-30T19:56:26.675Z,97740.00
2022-08-30T19:58:53.918Z,97743.00
2022-08-30T20:01:33.465Z,97744.00
2022-08-30T20:04:02.502Z,97741.00
2022-08-30T20:06:30.666Z,97740.00
2022-08-30T20:08:59.889Z,97742.00
2022-08-30T20:11:28.014Z,97735.00
2022-08-30T20:13:55.880Z,97745.00
2022-08-30T20:16:35.476Z,97731.00
2022-08-30T20:19:13.841Z,97733.00
2022-08-30T20:21:40.996Z,97740.00
2022-08-30T20:24:10.052Z,97738.00
2022-08-30T20:24:29.304Z,97761.00
2022-08-30T20:26:38.388Z,97733.00
2022-08-30T20:29:07.616Z,97734.00
2022-08-30T20:31:36.280Z,97733.00
2022-08-30T20:34:04.799Z,97730.00
2022-08-30T20:36:33.794Z,97727.00
2022-08-30T20:39:02.285Z,97730.00
2022-08-30T20:41:30.807Z,97731.00
2022-08-30T20:43:58.443Z,97735.00
2022-08-30T20:46:27.679Z,97736.00
2022-08-30T20:48:56.770Z,97742.00
2022-08-30T20:51:23.897Z,97730.00
2022-08-30T20:53:51.062Z,97728.00
2022-08-30T20:56:27.741Z,97729.00
2022-08-30T20:58:55.179Z,97724.00
2022-08-30T21:01:23.576Z,97734.00
2022-08-30T21:03:50.967Z,97736.00
2022-08-30T21:06:18.112Z,97738.00
2022-08-30T21:08:45.321Z,97748.00
2022-08-30T21:11:12.578Z,97748.00
2022-08-30T21:13:40.068Z,97749.00
2022-08-30T21:16:07.584Z,97748.00
2022-08-30T21:18:36.451Z,97748.00
2022-08-30T21:21:21.423Z,97749.00
2022-08-30T21:23:54.303Z,97746.00
2022-08-30T21:26:21.372Z,97752.00
2022-08-30T21:28:51.510Z,97759.00
2022-08-30T21:31:22.146Z,97756.00
2022-08-30T21:33:53.497Z,97741.00
2022-08-30T21:36:42.580Z,97747.00
2022-08-30T21:39:11.678Z,97738.00
2022-08-30T21:41:39.624Z,97742.00
2022-08-30T21:44:19.027Z,97747.00
2022-08-30T21:46:48.296Z,97740.00
2022-08-30T21:49:19.732Z,97748.00
2022-08-30T21:51:49.612Z,97757.00
2022-08-30T21:54:18.335Z,97755.00
2022-08-30T21:56:48.570Z,97750.00
2022-08-30T21:59:17.060Z,97757.00
2022-08-30T22:01:44.412Z,97756.00
2022-08-30T22:04:14.015Z,97755.00
2022-08-30T22:06:48.053Z,97756.00
2022-08-30T22:09:20.995Z,97758.00
2022-08-30T22:11:48.708Z,97759.00
2022-08-30T22:14:18.976Z,97758.00
2022-08-30T22:16:46.228Z,97766.00
2022-08-30T22:19:14.064Z,97753.00
2022-08-30T22:21:42.549Z,97753.00
2022-08-30T22:24:11.784Z,97753.00
2022-08-30T22:26:40.012Z,97756.00
2022-08-30T22:29:08.818Z,97749.00
2022-08-30T22:31:41.599Z,97750.00
2022-08-30T22:34:10.241Z,97749.00
2022-08-30T22:36:39.114Z,97756.00
2022-08-30T22:39:09.818Z,97753.00
2022-08-30T22:41:38.245Z,97760.00
2022-08-30T22:44:06.469Z,97750.00
2022-08-30T22:46:34.916Z,97759.00
2022-08-30T22:49:05.399Z,97759.00
2022-08-30T22:51:33.798Z,97751.00
2022-08-30T22:54:02.179Z,97742.00
2022-08-30T22:56:30.187Z,97743.00
2022-08-30T22:58:57.453Z,97736.00
2022-08-30T23:01:37.266Z,97733.00
2022-08-30T23:04:07.885Z,97725.00
2022-08-30T23:06:35.541Z,97725.00
2022-08-30T23:09:03.674Z,97723.00
2022-08-30T23:11:33.102Z,97720.00
2022-08-30T23:14:02.604Z,97712.00
2022-08-30T23:16:30.542Z,97722.00
2022-08-30T23:18:57.876Z,97713.00
2022-08-30T23:21:31.388Z,97710.00
2022-08-30T23:24:18.280Z,97708.00
2022-08-30T23:27:05.660Z,97708.00
2022-08-30T23:29:52.470Z,97711.00
2022-08-30T23:32:39.720Z,97723.00
2022-08-30T23:35:29.470Z,97713.00
2022-08-30T23:38:17.672Z,97715.00
2022-08-30T23:41:03.201Z,97711.00
2022-08-30T23:43:48.945Z,97707.00
2022-08-30T23:46:34.709Z,97704.00
2022-08-30T23:49:21.620Z,97700.00
2022-08-30T23:52:07.629Z,97702.00
2022-08-30T23:54:54.900Z,97703.00
2022-08-30T23:57:44.796Z,97693.00
